Time;durP1;ratioP1;P1;durP2;ratioP2;P2;SDS_P1;SDS_P2;PMS_P1;PMS_P2;Temp;Humidity;BMP_temperature;BMP_pressure;BME280_temperature;BME280_humidity;BME280_pressure;Samples;Min_cycle;Max_cycle;Signal;HPM_P1;HPM_P2
2023/06/22 00:00:11;;;;;;;7.70;6.50;;;;;;;17.46;100.00;100180.35;109055;1254;61809;-52
2023/06/22 00:02:39;;;;;;;5.70;5.30;;;;;;;17.45;100.00;100186.73;109154;1254;58745;-52
2023/06/22 00:05:07;;;;;;;6.70;5.30;;;;;;;17.43;100.00;100187.48;106472;1254;73749;-52
2023/06/22 00:07:34;;;;;;;9.80;7.50;;;;;;;17.39;100.00;100188.98;105505;1254;66973;-52
2023/06/22 00:10:02;;;;;;;13.30;5.40;;;;;;;17.31;100.00;100191.52;105400;1254;72344;-52
2023/06/22 00:12:29;;;;;;;7.90;5.80;;;;;;;17.27;100.00;100191.43;105546;1258;61599;-52
2023/06/22 00:14:57;;;;;;;12.60;6.60;;;;;;;17.27;100.00;100192.58;105383;1259;60479;-52
2023/06/22 00:17:24;;;;;;;6.00;5.50;;;;;;;17.22;100.00;100198.33;105225;1252;73796;-51
2023/06/22 00:19:53;;;;;;;7.20;6.20;;;;;;;17.14;100.00;100201.45;105153;1254;67211;-51
2023/06/22 00:22:28;;;;;;;7.40;6.60;;;;;;;17.09;100.00;100201.45;105261;1254;72668;-51
2023/06/22 00:24:56;;;;;;;7.10;6.50;;;;;;;17.07;100.00;100204.45;105636;1259;61880;-52
2023/06/22 00:27:24;;;;;;;6.20;5.70;;;;;;;17.09;100.00;100206.17;106437;1255;60380;-53
2023/06/22 00:29:51;;;;;;;7.20;6.50;;;;;;;17.06;100.00;100208.17;105164;1259;73975;-52
2023/06/22 00:32:19;;;;;;;7.20;6.70;;;;;;;16.97;100.00;100213.83;105633;1264;65606;-52
2023/06/22 00:34:47;;;;;;;6.80;6.20;;;;;;;16.89;100.00;100221.47;106569;1253;72896;-53
2023/06/22 00:37:15;;;;;;;6.30;6.00;;;;;;;16.82;100.00;100224.80;105246;1260;61735;-53
2023/06/22 00:39:43;;;;;;;7.10;6.20;;;;;;;16.80;100.00;100226.42;105307;1254;60565;-51
2023/06/22 00:42:11;;;;;;;6.60;5.90;;;;;;;16.78;100.00;100228.68;105254;1262;72652;-52
2023/06/22 00:44:38;;;;;;;8.40;5.50;;;;;;;16.76;100.00;100234.09;105444;1254;68083;-51
2023/06/22 00:47:06;;;;;;;6.40;5.60;;;;;;;16.73;100.00;100233.60;105495;1258;70441;-52
2023/06/22 00:49:33;;;;;;;7.20;5.60;;;;;;;16.71;100.00;100234.42;105662;1261;61632;-51
2023/06/22 00:52:01;;;;;;;11.40;6.60;;;;;;;16.71;100.00;100234.80;105490;1259;60532;-50
2023/06/22 00:54:28;;;;;;;5.20;4.80;;;;;;;16.72;100.00;100240.91;105440;1259;73645;-50
2023/06/22 00:56:57;;;;;;;7.90;7.00;;;;;;;16.73;100.00;100241.77;105246;1260;65591;-52
2023/06/22 00:59:25;;;;;;;6.10;5.70;;;;;;;16.74;100.00;100246.79;105891;1259;72710;-50
2023/06/22 01:01:53;;;;;;;8.00;6.20;;;;;;;16.73;100.00;100250.44;105532;1254;60571;-50
2023/06/22 01:04:24;;;;;;;10.70;6.00;;;;;;;16.73;100.00;100252.09;105582;1260;60451;-51
2023/06/22 01:06:55;;;;;;;8.60;5.70;;;;;;;16.71;100.00;100252.20;105411;1260;73741;-51
2023/06/22 01:09:28;;;;;;;7.10;6.50;;;;;;;16.67;100.00;100257.33;107011;1255;66995;-52
2023/06/22 01:11:58;;;;;;;7.10;6.40;;;;;;;16.63;100.00;100254.32;105292;1254;72951;-51
2023/06/22 01:14:30;;;;;;;11.30;6.00;;;;;;;16.62;100.00;100254.56;105498;1254;61756;-53
2023/06/22 01:16:57;;;;;;;6.80;6.30;;;;;;;16.62;100.00;100260.39;105363;1254;61904;-50
2023/06/22 01:19:41;;;;;;;9.10;6.40;;;;;;;16.60;100.00;100259.39;105300;1259;73869;-52
2023/06/22 01:22:15;;;;;;;12.60;6.20;;;;;;;16.60;100.00;100261.77;105615;1257;66333;-52
2023/06/22 01:25:01;;;;;;;7.00;6.30;;;;;;;16.57;100.00;100266.29;105456;1260;72396;-50
2023/06/22 01:27:53;;;;;;;10.00;6.10;;;;;;;16.53;100.00;100271.05;105218;1260;62598;-51
2023/06/22 01:30:20;;;;;;;6.50;5.90;;;;;;;16.53;100.00;100274.35;105076;1258;60607;-51
2023/06/22 01:32:48;;;;;;;7.10;5.70;;;;;;;16.54;100.00;100273.59;105175;1254;73541;-52
2023/06/22 01:35:15;;;;;;;6.40;5.90;;;;;;;16.54;100.00;100270.48;105273;1253;66803;-51
2023/06/22 01:37:42;;;;;;;7.00;6.40;;;;;;;16.55;100.00;100276.41;105243;1253;71213;-51
2023/06/22 01:40:11;;;;;;;12.00;5.90;;;;;;;16.51;100.00;100281.88;105202;1253;61751;-51
2023/06/22 01:42:38;;;;;;;10.60;6.30;;;;;;;16.41;100.00;100281.25;105180;1261;60446;-52
2023/06/22 01:45:07;;;;;;;6.80;5.40;;;;;;;16.34;100.00;100286.41;105605;1255;72590;-52
2023/06/22 01:47:37;;;;;;;9.10;7.10;;;;;;;16.32;100.00;100284.02;105807;1254;66752;-50
2023/06/22 01:50:05;;;;;;;7.70;6.60;;;;;;;16.32;100.00;100281.90;105676;1254;72688;-52
2023/06/22 01:52:33;;;;;;;6.50;6.00;;;;;;;16.29;100.00;100278.77;105778;1258;61537;-51
2023/06/22 01:55:01;;;;;;;8.10;5.50;;;;;;;16.31;100.00;100282.87;105259;1259;60541;-51
2023/06/22 01:57:28;;;;;;;8.40;6.00;;;;;;;16.32;100.00;100282.61;105287;1254;72646;-51
2023/06/22 02:00:18;;;;;;;6.20;5.70;;;;;;;16.34;100.00;100279.74;105158;1253;65898;-50
2023/06/22 02:02:55;;;;;;;8.60;6.00;;;;;;;16.34;100.00;100283.70;107574;1254;73524;-52
2023/06/22 02:05:23;;;;;;;6.60;5.90;;;;;;;16.35;100.00;100283.27;105192;1254;60618;-51
2023/06/22 02:08:06;;;;;;;6.00;5.60;;;;;;;16.36;100.00;100284.89;105202;1254;60593;-50
2023/06/22 02:10:33;;;;;;;7.00;6.40;;;;;;;16.35;100.00;100283.84;105270;1255;75493;-51
2023/06/22 02:13:01;;;;;;;7.60;6.80;;;;;;;16.35;100.00;100284.00;105192;1254;66776;-52
2023/06/22 02:15:28;;;;;;;7.60;6.40;;;;;;;16.35;100.00;100286.20;105282;1253;72662;-51
2023/06/22 02:17:55;;;;;;;8.40;7.00;;;;;;;16.32;100.00;100291.48;105304;1261;60554;-52
2023/06/22 02:20:23;;;;;;;8.60;7.70;;;;;;;16.26;100.00;100291.08;105242;1254;60548;-51
2023/06/22 02:22:51;;;;;;;9.70;8.90;;;;;;;16.24;100.00;100289.77;105293;1257;76104;-52
2023/06/22 02:25:19;;;;;;;7.50;6.90;;;;;;;16.25;100.00;100290.23;105366;1254;65862;-51
2023/06/22 02:27:47;;;;;;;7.60;7.20;;;;;;;16.23;100.00;100288.94;105293;1258;71434;-50
2023/06/22 02:30:16;;;;;;;7.60;7.00;;;;;;;16.20;100.00;100288.77;105384;1254;61711;-51
2023/06/22 02:32:44;;;;;;;6.90;6.50;;;;;;;16.19;100.00;100287.20;105236;1254;60603;-51
2023/06/22 02:35:15;;;;;;;6.40;6.00;;;;;;;16.20;100.00;100291.48;109133;1254;73907;-52
2023/06/22 02:37:42;;;;;;;7.00;6.60;;;;;;;16.23;100.00;100290.79;109016;1253;66809;-53
2023/06/22 02:40:10;;;;;;;6.70;6.10;;;;;;;16.26;100.00;100287.64;109038;1253;71547;-51
2023/06/22 02:42:39;;;;;;;9.70;6.80;;;;;;;16.31;100.00;100288.67;109083;1254;61706;-52
2023/06/22 02:45:07;;;;;;;7.30;6.90;;;;;;;16.34;100.00;100291.71;109018;1253;59990;-52
2023/06/22 02:47:34;;;;;;;7.50;6.50;;;;;;;16.33;100.00;100288.86;108873;1253;74853;-53
2023/06/22 02:50:02;;;;;;;7.60;6.80;;;;;;;16.34;100.00;100289.89;108773;1254;65862;-53
2023/06/22 02:52:31;;;;;;;7.90;6.60;;;;;;;16.36;100.00;100291.40;108858;1255;71543;-52
2023/06/22 02:54:59;;;;;;;7.40;6.80;;;;;;;16.37;100.00;100296.02;108911;1254;62163;-53
2023/06/22 02:57:27;;;;;;;6.30;5.90;;;;;;;16.37;100.00;100299.29;108936;1253;60067;-52
2023/06/22 02:59:55;;;;;;;7.40;6.70;;;;;;;16.40;100.00;100300.35;108994;1253;73922;-52
2023/06/22 03:02:22;;;;;;;6.10;5.70;;;;;;;16.47;100.00;100300.12;108963;1253;66790;-52
2023/06/22 03:04:50;;;;;;;6.70;6.10;;;;;;;16.54;100.00;100299.66;107669;1257;71383;-51
2023/06/22 03:07:17;;;;;;;6.40;5.90;;;;;;;16.61;100.00;100300.85;105300;1257;60569;-51
2023/06/22 03:09:46;;;;;;;7.20;5.30;;;;;;;16.68;100.00;100302.05;107913;1253;60559;-53
2023/06/22 03:12:13;;;;;;;6.80;6.10;;;;;;;16.74;100.00;100298.95;105780;1255;73927;-52
2023/06/22 03:14:49;;;;;;;7.60;6.50;;;;;;;16.81;100.00;100296.69;105235;1259;66011;-52
2023/06/22 03:17:17;;;;;;;5.60;5.30;;;;;;;16.87;100.00;100300.22;105419;1254;75063;-51
2023/06/22 03:19:44;;;;;;;6.50;6.10;;;;;;;16.92;100.00;100296.08;105182;1253;62651;-52
2023/06/22 03:22:12;;;;;;;6.60;6.10;;;;;;;16.97;100.00;100299.78;105215;1254;60466;-51
2023/06/22 03:24:40;;;;;;;6.10;5.80;;;;;;;16.98;100.00;100304.04;105252;1259;73848;-48
2023/06/22 03:27:08;;;;;;;6.00;5.50;;;;;;;17.00;100.00;100303.59;105265;1253;67335;-52
2023/06/22 03:29:35;;;;;;;5.10;4.70;;;;;;;16.98;100.00;100304.58;105215;1258;72774;-51
2023/06/22 03:32:05;;;;;;;5.00;4.50;;;;;;;16.97;100.00;100304.07;105187;1261;60619;-52
2023/06/22 03:34:34;;;;;;;5.00;4.70;;;;;;;16.98;100.00;100303.12;105797;1253;60593;-51
2023/06/22 03:37:01;;;;;;;5.60;5.20;;;;;;;17.00;100.00;100300.45;105670;1255;73772;-51
2023/06/22 03:39:29;;;;;;;5.40;5.00;;;;;;;17.05;100.00;100299.40;105146;1260;66912;-53
2023/06/22 03:41:57;;;;;;;5.50;5.20;;;;;;;17.13;100.00;100296.74;105138;1260;72625;-53
2023/06/22 03:44:24;;;;;;;5.70;5.30;;;;;;;17.21;100.00;100296.70;105287;1254;61066;-51
2023/06/22 03:46:51;;;;;;;5.80;5.40;;;;;;;17.30;100.00;100296.64;105320;1253;60543;-52
2023/06/22 03:49:19;;;;;;;6.50;5.30;;;;;;;17.39;100.00;100295.84;105365;1260;72631;-51
2023/06/22 03:51:46;;;;;;;6.00;5.40;;;;;;;17.48;100.00;100294.30;105364;1255;67042;-52
2023/06/22 03:54:13;;;;;;;5.60;5.30;;;;;;;17.58;100.00;100298.38;105381;1258;73292;-51
2023/06/22 03:56:41;;;;;;;5.40;5.20;;;;;;;17.68;100.00;100304.92;105358;1259;60506;-51
2023/06/22 03:59:08;;;;;;;6.00;5.50;;;;;;;17.79;100.00;100308.73;105316;1255;60654;-51
2023/06/22 04:01:36;;;;;;;5.70;5.20;;;;;;;17.89;100.00;100307.66;105382;1253;74831;-52
2023/06/22 04:04:04;;;;;;;5.60;5.20;;;;;;;17.99;100.00;100308.77;105184;1253;67303;-51
2023/06/22 04:06:31;;;;;;;5.40;4.90;;;;;;;18.09;100.00;100309.32;104970;1254;72739;-51
2023/06/22 04:08:59;;;;;;;6.50;6.10;;;;;;;18.20;100.00;100311.48;104956;1253;62750;-52
2023/06/22 04:11:26;;;;;;;6.30;5.70;;;;;;;18.31;100.00;100310.36;104933;1254;60506;-52
2023/06/22 04:13:54;;;;;;;6.00;5.70;;;;;;;18.42;100.00;100314.05;104875;1253;72655;-51
2023/06/22 04:16:21;;;;;;;6.60;6.20;;;;;;;18.53;100.00;100310.71;104878;1256;65626;-52
2023/06/22 04:18:48;;;;;;;6.30;6.00;;;;;;;18.65;100.00;100312.78;104924;1258;72812;-51
2023/06/22 04:21:15;;;;;;;7.60;5.10;;;;;;;18.77;100.00;100315.48;104794;1253;61731;-51
2023/06/22 04:23:43;;;;;;;6.80;6.30;;;;;;;18.90;100.00;100311.81;104839;1253;60563;-52
2023/06/22 04:26:10;;;;;;;6.70;6.30;;;;;;;19.03;100.00;100307.58;105237;1253;73320;-51
2023/06/22 04:28:38;;;;;;;6.50;5.90;;;;;;;19.16;100.00;100308.80;105231;1254;67265;-50
2023/06/22 04:31:05;;;;;;;7.50;6.80;;;;;;;19.29;100.00;100307.42;104737;1254;71163;-51
2023/06/22 04:33:32;;;;;;;6.20;5.70;;;;;;;19.42;100.00;100305.17;106035;1253;61595;-53
2023/06/22 04:36:03;;;;;;;7.00;6.50;;;;;;;19.54;100.00;100304.45;104701;1254;62286;-51
2023/06/22 04:38:33;;;;;;;11.40;6.00;;;;;;;19.67;100.00;100303.45;105514;1258;74322;-50
2023/06/22 04:41:02;;;;;;;7.00;6.40;;;;;;;19.80;100.00;100303.89;105350;1253;67379;-51
2023/06/22 04:43:32;;;;;;;6.70;6.10;;;;;;;19.92;100.00;100300.39;105315;1254;72664;-55
2023/06/22 04:46:03;;;;;;;6.90;6.30;;;;;;;20.05;100.00;100299.39;105364;1254;61654;-53
2023/06/22 04:48:34;;;;;;;7.20;6.80;;;;;;;20.17;100.00;100298.77;105228;1253;60533;-51
2023/06/22 04:51:03;;;;;;;8.50;7.90;;;;;;;20.30;100.00;100300.66;105304;1258;73800;-51
2023/06/22 04:53:31;;;;;;;8.30;7.70;;;;;;;20.41;100.00;100296.51;105558;1253;65462;-52
2023/06/22 04:55:58;;;;;;;8.20;7.50;;;;;;;20.53;100.00;100292.50;106151;1254;72646;-51
2023/06/22 04:58:28;;;;;;;11.20;8.40;;;;;;;20.64;100.00;100289.77;105296;1253;60792;-52
2023/06/22 05:00:57;;;;;;;7.90;7.20;;;;;;;20.74;100.00;100286.91;107196;1253;61672;-52
2023/06/22 05:03:25;;;;;;;7.90;7.40;;;;;;;20.86;100.00;100287.73;105210;1257;73850;-52
2023/06/22 05:05:53;;;;;;;12.80;8.40;;;;;;;20.98;100.00;100287.10;105651;1254;66763;-51
2023/06/22 05:08:21;;;;;;;8.30;7.60;;;;;;;21.08;100.00;100290.06;105314;1254;72479;-51
2023/06/22 05:10:48;;;;;;;10.10;9.20;;;;;;;21.19;100.00;100289.98;105359;1255;64311;-51
2023/06/22 05:13:31;;;;;;;9.00;8.30;;;;;;;21.30;100.00;100290.66;105292;1257;60936;-51
2023/06/22 05:16:01;;;;;;;9.20;8.60;;;;;;;21.40;100.00;100290.91;105205;1253;74195;-53
2023/06/22 05:18:30;;;;;;;10.30;8.10;;;;;;;21.50;100.00;100286.16;108928;1253;66870;-54
2023/06/22 05:20:58;;;;;;;8.90;8.30;;;;;;;21.60;100.00;100283.48;108807;1254;72716;-53
2023/06/22 05:23:26;;;;;;;8.10;7.40;;;;;;;21.70;100.00;100276.98;108964;1253;60399;-54
2023/06/22 05:25:54;;;;;;;8.30;7.70;;;;;;;21.78;100.00;100274.63;109034;1253;58742;-51
2023/06/22 05:28:24;;;;;;;9.60;8.80;;;;;;;21.88;100.00;100272.13;108910;1253;73816;-52
2023/06/22 05:30:51;;;;;;;8.60;8.00;;;;;;;21.98;100.00;100267.48;108932;1253;65832;-51
2023/06/22 05:33:18;;;;;;;8.40;7.90;;;;;;;22.06;100.00;100264.33;109036;1253;72641;-51
2023/06/22 05:35:46;;;;;;;7.90;7.30;;;;;;;22.16;100.00;100259.25;108977;1253;60430;-51
2023/06/22 05:38:14;;;;;;;8.00;7.40;;;;;;;22.27;100.00;100255.17;108970;1254;58467;-51
2023/06/22 05:40:41;;;;;;;9.80;9.00;;;;;;;22.37;100.00;100249.14;108914;1253;73782;-51
2023/06/22 05:43:08;;;;;;;7.90;7.50;;;;;;;22.46;100.00;100247.96;109012;1253;68608;-51
2023/06/22 05:45:36;;;;;;;8.80;8.10;;;;;;;22.54;100.00;100237.00;109136;1253;71354;-51
2023/06/22 05:48:04;;;;;;;8.80;8.20;;;;;;;22.62;100.00;100235.67;108950;1260;60363;-51
2023/06/22 05:50:31;;;;;;;8.10;7.40;;;;;;;22.70;100.00;100230.96;109094;1253;61947;-51
2023/06/22 05:52:59;;;;;;;8.60;8.10;;;;;;;22.79;100.00;100224.76;109179;1253;72553;-51
2023/06/22 05:55:27;;;;;;;11.80;8.60;;;;;;;22.86;100.00;100222.95;109112;1253;66921;-51
2023/06/22 05:57:54;;;;;;;7.30;6.90;;;;;;;22.92;100.00;100220.57;109101;1253;71210;-51
2023/06/22 06:00:22;;;;;;;7.60;6.60;;;;;;;22.98;100.00;100219.05;109156;1253;60383;-51
2023/06/22 06:02:49;;;;;;;7.00;6.70;;;;;;;23.05;100.00;100214.27;109155;1253;60712;-51
2023/06/22 06:05:17;;;;;;;7.40;7.00;;;;;;;23.12;100.00;100206.99;108226;1254;72754;-51
2023/06/22 06:07:45;;;;;;;7.00;6.50;;;;;;;23.21;100.00;100206.65;105330;1253;66809;-52
2023/06/22 06:10:12;;;;;;;6.70;6.30;;;;;;;23.30;100.00;100202.33;105339;1253;72668;-53
2023/06/22 06:12:39;;;;;;;8.00;6.90;;;;;;;23.37;100.00;100202.35;105510;1253;60817;-52
2023/06/22 06:15:07;;;;;;;10.10;6.70;;;;;;;23.46;100.00;100202.84;105329;1259;60539;-53
2023/06/22 06:17:47;;;;;;;7.20;6.80;;;;;;;23.54;100.00;100200.29;105477;1257;72543;-52
2023/06/22 06:20:19;;;;;;;5.70;5.40;;;;;;;23.61;100.00;100195.55;105485;1253;65686;-53
2023/06/22 06:22:47;;;;;;;5.60;5.20;;;;;;;23.67;100.00;100194.23;105345;1259;72472;-53
2023/06/22 06:25:19;;;;;;;5.30;4.90;;;;;;;23.74;100.00;100190.26;105371;1253;60510;-51
2023/06/22 06:27:47;;;;;;;8.10;5.80;;;;;;;23.82;100.00;100186.57;105226;1254;60514;-52
2023/06/22 06:30:15;;;;;;;7.50;5.10;;;;;;;23.90;100.00;100183.02;105406;1258;72543;-52
2023/06/22 06:32:45;;;;;;;5.90;5.50;;;;;;;23.98;100.00;100182.23;105528;1254;66269;-52
2023/06/22 06:35:14;;;;;;;5.90;5.20;;;;;;;24.06;100.00;100175.77;106049;1253;72616;-52
2023/06/22 06:37:45;;;;;;;4.10;3.90;;;;;;;24.15;100.00;100173.08;106154;1257;60447;-52
2023/06/22 06:40:13;;;;;;;4.30;4.10;;;;;;;24.24;100.00;100174.25;105623;1253;60555;-53
2023/06/22 06:42:44;;;;;;;3.90;3.70;;;;;;;24.31;100.00;100168.38;105353;1253;72660;-53
2023/06/22 06:45:24;;;;;;;5.40;3.30;;;;;;;24.38;100.00;100167.69;105378;1257;67271;-53
2023/06/22 06:47:52;;;;;;;5.20;4.90;;;;;;;24.46;100.00;100170.42;105419;1253;72671;-53
2023/06/22 06:50:20;;;;;;;4.70;4.50;;;;;;;24.52;100.00;100165.23;105464;1257;60473;-52
2023/06/22 06:52:47;;;;;;;6.20;4.90;;;;;;;24.57;100.00;100161.48;105879;1255;60495;-51
2023/06/22 06:55:15;;;;;;;5.00;4.70;;;;;;;24.60;100.00;100158.77;105468;1253;73918;-52
2023/06/22 06:57:42;;;;;;;5.60;4.00;;;;;;;24.65;100.00;100157.69;105372;1253;67497;-52
2023/06/22 07:00:11;;;;;;;4.10;3.80;;;;;;;24.70;100.00;100152.00;105427;1253;72418;-53
2023/06/22 07:02:42;;;;;;;4.70;4.30;;;;;;;24.76;100.00;100151.77;105771;1257;60557;-54
2023/06/22 07:05:10;;;;;;;4.30;3.30;;;;;;;24.82;100.00;100151.08;105784;1253;60327;-53
2023/06/22 07:07:37;;;;;;;4.20;3.90;;;;;;;24.89;100.00;100151.13;105684;1253;73842;-53
2023/06/22 07:10:05;;;;;;;4.00;3.70;;;;;;;24.96;100.00;100152.66;105581;1257;65511;-54
2023/06/22 07:12:33;;;;;;;3.70;3.60;;;;;;;25.02;100.00;100149.38;106032;1253;72112;-52
2023/06/22 07:15:05;;;;;;;5.90;4.50;;;;;;;25.07;100.00;100141.29;105459;1257;60941;-54
2023/06/22 07:17:32;;;;;;;4.50;4.20;;;;;;;25.13;100.00;100133.29;105803;1256;60573;-53
2023/06/22 07:20:01;;;;;;;4.10;3.90;;;;;;;25.20;100.00;100130.90;105573;1256;74148;-53
2023/06/22 07:22:29;;;;;;;4.30;3.90;;;;;;;25.27;100.00;100132.61;106091;1255;67023;-54
2023/06/22 07:24:56;;;;;;;4.60;3.70;;;;;;;25.34;100.00;100127.86;105482;1257;71954;-53
2023/06/22 07:27:24;;;;;;;5.00;3.80;;;;;;;25.41;100.00;100131.13;105318;1257;60440;-51
2023/06/22 07:29:51;;;;;;;4.20;4.00;;;;;;;25.47;100.00;100133.27;105474;1254;60527;-52
2023/06/22 07:32:19;;;;;;;4.40;4.10;;;;;;;25.52;100.00;100131.03;105407;1253;72676;-53
2023/06/22 07:34:46;;;;;;;5.40;4.80;;;;;;;25.57;100.00;100128.48;105382;1254;65649;-50
2023/06/22 07:37:13;;;;;;;4.80;4.50;;;;;;;25.62;100.00;100127.77;105328;1254;71371;-51
2023/06/22 07:42:37;;;;;;;6.30;4.90;;;;;;;25.72;100.00;100106.77;102437;1291;600866;-54
2023/06/22 07:45:07;;;;;;;4.80;4.50;;;;;;;25.75;100.00;100123.39;104559;1264;61078;-53
2023/06/22 07:47:35;;;;;;;5.00;4.60;;;;;;;25.78;100.00;100124.16;105301;1264;60138;-52
2023/06/22 07:50:03;;;;;;;5.40;5.10;;;;;;;25.80;100.00;100124.75;104480;1264;70994;-53
2023/06/22 07:52:31;;;;;;;6.00;5.50;;;;;;;25.87;100.00;100129.95;104782;1270;66874;-53
2023/06/22 07:54:58;;;;;;;6.00;5.50;;;;;;;25.95;100.00;100129.48;104450;1269;73192;-53
2023/06/22 07:57:33;;;;;;;6.10;5.60;;;;;;;26.00;100.00;100132.23;104533;1264;301004;-53
2023/06/22 08:00:13;;;;;;;5.70;5.00;;;;;;;26.05;100.00;100130.97;104934;1264;60010;-52
2023/06/22 08:02:41;;;;;;;6.80;6.20;;;;;;;26.11;100.00;100130.84;104813;1264;72049;-50
2023/06/22 08:05:09;;;;;;;5.90;5.40;;;;;;;26.15;100.00;100131.32;104846;1264;66191;-52
2023/06/22 08:07:47;;;;;;;5.60;5.10;;;;;;;26.15;100.00;100132.08;104861;1266;71397;-53
2023/06/22 08:10:15;;;;;;;4.40;4.20;;;;;;;26.13;100.00;100130.13;105485;1257;60044;-52
2023/06/22 08:12:42;;;;;;;4.80;4.40;;;;;;;26.07;100.00;100131.48;105297;1257;60483;-52
2023/06/22 08:15:10;;;;;;;4.70;4.20;;;;;;;26.01;100.00;100131.96;105268;1257;73046;-52
2023/06/22 08:17:38;;;;;;;4.50;4.00;;;;;;;25.95;100.00;100127.98;105105;1260;66065;-52
2023/06/22 08:20:10;;;;;;;4.60;4.20;;;;;;;25.90;100.00;100130.31;105078;1257;72452;-52
2023/06/22 08:22:37;;;;;;;3.20;3.00;;;;;;;25.86;100.00;100124.88;105118;1257;59614;-53
2023/06/22 08:25:06;;;;;;;3.50;3.30;;;;;;;25.82;100.00;100124.29;105251;1257;59843;-51
2023/06/22 08:27:33;;;;;;;3.50;3.30;;;;;;;25.76;100.00;100120.09;108915;1254;73077;-53
2023/06/22 08:30:00;;;;;;;2.90;2.60;;;;;;;25.71;100.00;100116.28;108896;1257;66736;-54
2023/06/22 08:32:28;;;;;;;3.50;3.20;;;;;;;25.66;100.00;100114.02;108844;1257;72628;-54
2023/06/22 08:34:56;;;;;;;4.50;3.70;;;;;;;25.62;100.00;100112.39;108823;1255;60003;-54
2023/06/22 08:37:30;;;;;;;4.70;4.40;;;;;;;25.58;100.00;100111.99;108840;1254;60074;-54
2023/06/22 08:40:08;;;;;;;3.70;3.50;;;;;;;25.54;100.00;100110.08;108856;1254;71861;-54
2023/06/22 08:42:36;;;;;;;4.00;3.70;;;;;;;25.48;100.00;100107.17;108856;1256;67939;-54
2023/06/22 08:45:04;;;;;;;3.70;3.50;;;;;;;25.45;100.00;100107.34;108866;1257;72669;-54
2023/06/22 08:47:31;;;;;;;3.40;3.10;;;;;;;25.46;100.00;100099.36;108782;1257;60057;-53
2023/06/22 08:49:59;;;;;;;3.40;3.20;;;;;;;25.51;100.00;100098.47;108912;1256;58158;-54
2023/06/22 08:52:26;;;;;;;2.60;2.50;;;;;;;25.59;100.00;100096.17;108902;1254;73123;-54
2023/06/22 08:54:53;;;;;;;3.90;3.60;;;;;;;25.70;100.00;100098.91;108803;1255;66785;-54
2023/06/22 08:57:21;;;;;;;3.20;3.10;;;;;;;25.83;100.00;100098.17;108950;1254;72665;-54
2023/06/22 08:59:48;;;;;;;3.20;2.90;;;;;;;25.95;100.00;100097.97;108795;1254;60116;-54
2023/06/22 09:02:16;;;;;;;3.80;3.60;;;;;;;26.06;100.00;100092.02;108828;1259;60431;-54
2023/06/22 09:04:44;;;;;;;3.30;3.10;;;;;;;26.18;100.00;100085.59;108207;1257;72890;-53
2023/06/22 09:07:11;;;;;;;4.10;3.80;;;;;;;26.33;100.00;100085.31;105283;1257;66903;-53
2023/06/22 09:09:38;;;;;;;4.30;4.00;;;;;;;26.48;100.00;100083.80;105191;1260;71436;-53
2023/06/22 09:12:07;;;;;;;3.80;3.60;;;;;;;26.58;100.00;100082.87;105262;1257;60058;-53
2023/06/22 09:14:35;;;;;;;3.20;3.00;;;;;;;26.65;100.00;100078.37;105350;1262;59567;-53
2023/06/22 09:17:02;;;;;;;3.70;3.60;;;;;;;26.75;100.00;100076.42;105104;1263;73726;-53
2023/06/22 09:19:29;;;;;;;4.10;3.20;;;;;;;26.83;100.00;100070.66;105272;1260;66063;-53
2023/06/22 09:21:57;;;;;;;4.30;3.30;;;;;;;26.91;100.00;100072.81;105167;1261;72755;-53
2023/06/22 09:24:24;;;;;;;3.20;3.00;;;;;;;26.96;100.00;100076.64;105256;1257;60107;-53
2023/06/22 09:26:51;;;;;;;3.10;2.90;;;;;;;26.98;100.00;100075.86;105135;1262;59967;-52
2023/06/22 09:29:19;;;;;;;3.50;3.20;;;;;;;26.96;100.00;100073.14;105149;1260;73032;-53
2023/06/22 09:31:46;;;;;;;4.40;2.90;;;;;;;26.90;100.00;100074.90;105221;1261;66696;-53
2023/06/22 09:34:14;;;;;;;3.00;2.80;;;;;;;26.83;100.00;100075.50;104859;1259;71159;-54
2023/06/22 09:36:41;;;;;;;2.90;2.70;;;;;;;26.74;100.00;100068.96;104922;1258;60100;-53
2023/06/22 09:39:08;;;;;;;3.80;3.60;;;;;;;26.64;100.00;100066.98;104985;1257;59699;-54
2023/06/22 09:41:35;;;;;;;4.20;3.10;;;;;;;26.55;100.00;100066.71;104922;1255;71797;-54
2023/06/22 09:44:03;;;;;;;5.00;3.20;;;;;;;26.47;100.00;100065.72;104953;1256;66962;-54
2023/06/22 09:46:30;;;;;;;3.60;2.90;;;;;;;26.38;100.00;100063.36;105018;1261;71333;-54
2023/06/22 09:48:57;;;;;;;3.60;3.00;;;;;;;26.28;100.00;100064.96;105281;1262;60118;-53
2023/06/22 09:51:25;;;;;;;4.80;3.20;;;;;;;26.19;100.00;100065.40;105403;1260;59695;-52
2023/06/22 09:53:53;;;;;;;3.80;3.50;;;;;;;26.10;100.00;100065.11;105703;1257;73177;-55
2023/06/22 09:56:21;;;;;;;3.40;3.10;;;;;;;26.01;100.00;100060.63;105378;1261;66827;-54
2023/06/22 09:58:50;;;;;;;3.30;2.80;;;;;;;25.94;100.00;100057.28;105309;1262;71934;-51
2023/06/22 10:01:20;;;;;;;2.50;2.30;;;;;;;25.95;100.00;100053.95;105371;1261;60684;-53
2023/06/22 10:03:48;;;;;;;2.50;2.10;;;;;;;26.01;100.00;100050.62;105606;1257;60086;-54
2023/06/22 10:06:16;;;;;;;4.20;3.10;;;;;;;26.13;100.00;100045.85;105442;1255;73430;-53
2023/06/22 10:08:43;;;;;;;2.20;1.60;;;;;;;26.26;100.00;100037.25;105266;1260;67007;-52
2023/06/22 10:11:11;;;;;;;1.50;1.40;;;;;;;26.41;100.00;100036.04;105365;1256;72683;-52
2023/06/22 10:13:38;;;;;;;1.90;1.30;;;;;;;26.54;100.00;100028.83;105266;1258;59643;-53
2023/06/22 10:16:06;;;;;;;1.80;1.70;;;;;;;26.66;100.00;100024.98;105411;1261;59754;-52
2023/06/22 10:18:34;;;;;;;1.30;1.20;;;;;;;26.78;100.00;100024.52;105341;1257;72123;-52
2023/06/22 10:21:01;;;;;;;2.50;1.80;;;;;;;26.89;100.00;100022.38;105296;1261;66929;-51
2023/06/22 10:23:28;;;;;;;1.60;1.50;;;;;;;26.97;100.00;100019.02;105404;1261;71668;-51
2023/06/22 10:25:58;;;;;;;2.60;2.40;;;;;;;27.01;100.00;100021.41;105340;1257;60045;-52
2023/06/22 10:28:25;;;;;;;2.10;2.00;;;;;;;27.00;100.00;100019.27;105527;1253;59984;-53
2023/06/22 10:30:52;;;;;;;3.40;2.10;;;;;;;26.97;100.00;100018.13;105459;1258;73043;-52
2023/06/22 10:33:20;;;;;;;2.50;2.00;;;;;;;26.97;100.00;100013.95;105261;1260;66004;-53
2023/06/22 10:35:48;;;;;;;2.20;2.10;;;;;;;27.00;100.00;100013.92;105427;1254;73214;-54
2023/06/22 10:38:16;;;;;;;2.50;2.30;;;;;;;27.07;100.00;100012.54;105416;1257;59636;-53
2023/06/22 10:40:43;;;;;;;3.60;2.00;;;;;;;27.17;100.00;100007.31;105403;1257;60093;-53
2023/06/22 10:43:11;;;;;;;2.30;2.20;;;;;;;27.26;100.00;100005.44;105495;1254;71507;-52
2023/06/22 10:45:39;;;;;;;2.40;2.20;;;;;;;27.34;100.00;99996.05;105408;1253;69304;-52
2023/06/22 10:48:06;;;;;;;2.90;2.70;;;;;;;27.38;100.00;99995.42;105350;1254;74333;-53
2023/06/22 10:50:34;;;;;;;2.30;2.20;;;;;;;27.38;100.00;99992.83;105600;1256;59800;-52
2023/06/22 10:53:01;;;;;;;2.90;2.70;;;;;;;27.41;100.00;99992.36;105493;1253;59670;-53
2023/06/22 10:55:28;;;;;;;2.70;2.00;;;;;;;27.45;100.00;99988.61;105385;1257;71575;-53
2023/06/22 10:58:18;;;;;;;2.60;2.40;;;;;;;27.53;100.00;99988.20;105357;1251;66839;-54
2023/06/22 11:00:45;;;;;;;2.70;2.50;;;;;;;27.60;100.00;99982.18;109079;1251;72676;-53
2023/06/22 11:03:14;;;;;;;4.40;2.10;;;;;;;27.70;100.00;99982.90;107945;1253;59943;-53
2023/06/22 11:05:41;;;;;;;2.50;2.30;;;;;;;27.80;100.00;99978.54;105935;1253;59671;-54
2023/06/22 11:08:09;;;;;;;2.50;2.30;;;;;;;27.90;100.00;99976.09;105408;1252;73100;-51
2023/06/22 11:10:36;;;;;;;2.70;2.50;;;;;;;27.98;100.00;99974.08;105430;1257;66749;-54
2023/06/22 11:13:05;;;;;;;1.90;1.80;;;;;;;28.05;100.00;99969.86;105374;1254;71845;-54
2023/06/22 11:15:32;;;;;;;3.30;1.90;;;;;;;28.09;100.00;99968.61;105333;1253;60332;-54
2023/06/22 11:17:59;;;;;;;2.50;2.40;;;;;;;28.09;100.00;99963.63;105465;1253;60549;-53